Time;durP1;ratioP1;P1;durP2;ratioP2;P2;SDS_P1;SDS_P2;PMS_P1;PMS_P2;Temp;Humidity;BMP_temperature;BMP_pressure;BME280_temperature;BME280_humidity;BME280_pressure;Samples;Min_cycle;Max_cycle;Signal;HPM_P1;HPM_P2
2020/12/11 00:00:21;;;;;;;67.00;27.80;;;;;;;-0.41;100.00;94703.28;1026362;28;20435;-70
2020/12/11 00:00:52;;;;;;;73.03;29.47;;;;;;;-0.44;100.00;94702.94;1022398;28;20027;-70
2020/12/11 00:01:22;;;;;;;68.73;28.57;;;;;;;-0.44;100.00;94705.53;1021773;28;20027;-71
2020/12/11 00:01:57;;;;;;;66.97;28.93;;;;;;;-0.43;100.00;94709.69;1022202;28;20069;-69
2020/12/11 00:02:27;;;;;;;66.07;28.27;;;;;;;-0.51;100.00;94690.16;1024199;28;20027;-71
2020/12/11 00:02:58;;;;;;;65.67;28.23;;;;;;;-0.55;100.00;94683.88;1034794;28;20036;-69
2020/12/11 00:03:28;;;;;;;69.03;29.37;;;;;;;-0.44;100.00;94700.38;1030228;28;20010;-71
2020/12/11 00:04:02;;;;;;;61.23;28.13;;;;;;;-0.46;100.00;94695.47;1030090;28;20030;-71
2020/12/11 00:04:32;;;;;;;60.53;26.48;;;;;;;-0.46;100.00;94697.25;1026832;28;20027;-71
2020/12/11 00:05:03;;;;;;;73.13;28.87;;;;;;;-0.48;100.00;94692.31;1030747;28;20038;-71
2020/12/11 00:05:33;;;;;;;67.73;27.97;;;;;;;-0.47;100.00;94691.28;1030610;28;20038;-71
2020/12/11 00:06:04;;;;;;;69.23;29.23;;;;;;;-0.50;100.00;94684.03;1030172;28;20026;-69
2020/12/11 00:06:38;;;;;;;69.27;28.43;;;;;;;-0.51;100.00;94685.78;1026276;28;20031;-71
2020/12/11 00:07:08;;;;;;;74.57;29.55;;;;;;;-0.47;100.00;94686.13;1026687;28;20026;-70
2020/12/11 00:07:39;;;;;;;62.80;27.53;;;;;;;-0.76;100.00;94646.53;1030835;28;20034;-70
2020/12/11 00:08:10;;;;;;;79.90;30.10;;;;;;;-0.45;100.00;94691.09;1026901;28;20507;-71
2020/12/11 00:08:40;;;;;;;77.73;31.60;;;;;;;-0.44;100.00;94690.06;1030205;28;20282;-72
2020/12/11 00:09:11;;;;;;;76.50;30.33;;;;;;;-0.44;100.00;94692.66;1027655;28;20111;-69
2020/12/11 00:09:41;;;;;;;69.97;28.80;;;;;;;-0.45;100.00;94693.66;1033915;28;20034;-74
2020/12/11 00:10:12;;;;;;;74.97;30.33;;;;;;;-0.44;100.00;94688.28;1038355;28;20704;-73
2020/12/11 00:10:43;;;;;;;72.97;29.13;;;;;;;-0.45;100.00;94691.88;1034353;28;20022;-71
2020/12/11 00:11:13;;;;;;;69.77;29.33;;;;;;;-0.46;100.00;94695.47;1034346;28;20022;-70
2020/12/11 00:11:44;;;;;;;62.40;29.13;;;;;;;-0.49;100.00;94690.75;1030922;28;20025;-71
2020/12/11 00:12:14;;;;;;;67.33;28.80;;;;;;;-0.51;100.00;94685.78;1025980;28;20019;-69
2020/12/11 00:12:50;;;;;;;72.73;29.80;;;;;;;-0.50;100.00;94695.09;1026091;28;20038;-71
2020/12/11 00:13:21;;;;;;;67.50;28.73;;;;;;;-0.46;100.00;94692.09;1034092;28;20053;-72
2020/12/11 00:13:51;;;;;;;73.37;28.83;;;;;;;-0.47;100.00;94693.88;1030132;28;20034;-70
2020/12/11 00:14:22;;;;;;;67.67;27.37;;;;;;;-0.48;100.00;94692.31;1031387;28;20035;-71
2020/12/11 00:14:52;;;;;;;64.23;28.90;;;;;;;-0.50;100.00;94689.19;1030306;28;20123;-71
2020/12/11 00:15:22;;;;;;;70.03;28.30;;;;;;;-0.50;100.00;94684.81;1029688;28;20162;-70
2020/12/11 00:16:00;;;;;;;68.83;27.77;;;;;;;-0.50;100.00;94686.59;1026975;28;20029;-67
2020/12/11 00:16:31;;;;;;;78.15;29.85;;;;;;;-0.50;100.00;94689.19;1031388;28;20026;-72
2020/12/11 00:17:01;;;;;;;72.50;29.20;;;;;;;-0.51;100.00;94685.00;1035448;28;20041;-70
2020/12/11 00:17:32;;;;;;;75.10;29.37;;;;;;;-0.55;100.00;94682.09;1034032;28;20088;-72
2020/12/11 00:18:02;;;;;;;73.77;28.27;;;;;;;-0.52;100.00;94691.16;1026428;28;20668;-71
2020/12/11 00:18:33;;;;;;;69.87;29.87;;;;;;;-0.50;100.00;94689.19;1030298;28;20135;-69
2020/12/11 00:19:03;;;;;;;76.50;30.63;;;;;;;-0.58;100.00;94672.22;1030456;28;20022;-71
2020/12/11 00:19:34;;;;;;;78.03;29.13;;;;;;;-0.54;100.00;94685.44;1030099;28;20023;-70
2020/12/11 00:20:05;;;;;;;78.27;30.13;;;;;;;-0.54;100.00;94678.53;1030046;28;20821;-70
2020/12/11 00:20:44;;;;;;;82.17;31.03;;;;;;;-0.56;100.00;94675.38;1030436;28;20060;-71
2020/12/11 00:21:14;;;;;;;79.63;30.10;;;;;;;-0.54;100.00;94677.72;1031649;28;20033;-70
2020/12/11 00:21:45;;;;;;;74.33;27.90;;;;;;;-0.53;100.00;94680.09;1030846;28;20035;-71
2020/12/11 00:22:15;;;;;;;78.87;31.00;;;;;;;-0.62;100.00;94662.56;1030876;28;20136;-70
2020/12/11 00:22:46;;;;;;;85.70;30.57;;;;;;;-0.53;100.00;94680.09;1026111;28;20076;-71
2020/12/11 00:23:16;;;;;;;74.77;29.83;;;;;;;-0.53;100.00;94684.47;1022624;29;20066;-71
2020/12/11 00:23:47;;;;;;;77.97;30.20;;;;;;;-0.56;100.00;94675.38;1024775;28;20027;-70
2020/12/11 00:24:17;;;;;;;79.80;31.30;;;;;;;-0.52;100.00;94675.72;1028360;28;20026;-69
2020/12/11 00:24:48;;;;;;;79.07;29.37;;;;;;;-0.57;100.00;94673.81;1056120;28;20114;-71
2020/12/11 00:25:19;;;;;;;69.40;26.98;;;;;;;-0.54;100.00;94677.72;1051209;28;20042;-70
2020/12/11 00:25:49;;;;;;;77.93;29.00;;;;;;;-0.61;100.00;94671.88;1022211;29;20057;-69
2020/12/11 00:26:20;;;;;;;85.20;31.50;;;;;;;-0.61;100.00;94669.28;1026668;28;20492;-69
2020/12/11 00:26:50;;;;;;;81.67;30.83;;;;;;;-0.53;100.00;94680.09;1026460;28;20120;-69
2020/12/11 00:27:21;;;;;;;78.87;29.27;;;;;;;-0.54;100.00;94678.53;1026499;28;20019;-74
2020/12/11 00:27:51;;;;;;;76.80;29.33;;;;;;;-0.60;100.00;94669.09;1030602;28;20053;-71
2020/12/11 00:28:22;;;;;;;88.50;32.20;;;;;;;-0.52;100.00;94680.88;1026181;28;20384;-71
2020/12/11 00:28:52;;;;;;;70.10;27.83;;;;;;;-0.61;100.00;94662.34;1026617;28;20029;-69
2020/12/11 00:29:23;;;;;;;76.03;30.17;;;;;;;-0.58;100.00;94664.47;1026255;28;20054;-71
2020/12/11 00:29:53;;;;;;;92.23;31.07;;;;;;;-0.50;100.00;94678.88;1026472;28;20115;-72
2020/12/11 00:30:24;;;;;;;83.97;31.73;;;;;;;-0.53;100.00;94671.56;1027058;28;20018;-72
2020/12/11 00:30:55;;;;;;;87.60;32.33;;;;;;;-0.51;100.00;94675.47;1022359;29;20366;-69
2020/12/11 00:31:25;;;;;;;84.75;30.08;;;;;;;-0.49;100.00;94681.22;1025579;28;20098;-73
2020/12/11 00:31:56;;;;;;;79.93;31.70;;;;;;;-0.49;100.00;94680.44;1018653;29;20835;-69
2020/12/11 00:32:27;;;;;;;78.10;31.90;;;;;;;-0.55;100.00;94660.69;1029384;28;20022;-68
2020/12/11 00:32:57;;;;;;;72.18;28.52;;;;;;;-0.56;100.00;94665.06;1030581;28;20030;-71
2020/12/11 00:33:28;;;;;;;80.30;30.27;;;;;;;-0.48;100.00;94684.56;1026276;28;20034;-71
2020/12/11 00:33:58;;;;;;;79.43;31.57;;;;;;;-0.49;100.00;94677.84;1028342;28;20034;-69
2020/12/11 00:34:30;;;;;;;75.07;31.03;;;;;;;-0.53;100.00;94669.00;1026356;28;20114;-70
2020/12/11 00:35:00;;;;;;;93.80;32.70;;;;;;;-0.49;100.00;94683.78;1030243;28;20048;-69
2020/12/11 00:35:30;;;;;;;74.47;29.17;;;;;;;-0.50;100.00;94684.81;1031030;28;20080;-70
2020/12/11 00:36:01;;;;;;;73.90;30.50;;;;;;;-0.50;100.00;94676.28;1034384;28;20460;-70
2020/12/11 00:36:31;;;;;;;81.17;31.13;;;;;;;-0.49;100.00;94675.28;1030184;28;20018;-70
2020/12/11 00:37:02;;;;;;;74.88;30.65;;;;;;;-0.47;100.00;94678.41;1022227;29;20039;-70
2020/12/11 00:37:33;;;;;;;79.53;30.60;;;;;;;-0.48;100.00;94676.84;1021819;28;20054;-68
2020/12/11 00:38:03;;;;;;;77.30;30.37;;;;;;;-0.46;100.00;94677.41;1018414;29;20028;-72
2020/12/11 00:38:34;;;;;;;82.10;31.33;;;;;;;-0.44;100.00;94677.97;1022533;28;20664;-71
2020/12/11 00:39:04;;;;;;;86.10;32.67;;;;;;;-0.55;100.00;94660.69;1034699;28;20029;-70
2020/12/11 00:39:35;;;;;;;76.77;29.80;;;;;;;-0.47;100.00;94673.25;1030280;28;20041;-69
2020/12/11 00:40:05;;;;;;;75.37;32.33;;;;;;;-0.48;100.00;94675.03;1030315;28;20504;-69
2020/12/11 00:40:36;;;;;;;76.37;31.33;;;;;;;-0.48;100.00;94679.41;1030829;28;20027;-71
2020/12/11 00:41:06;;;;;;;84.50;34.10;;;;;;;-0.52;100.00;94673.13;1034605;28;20071;-68
2020/12/11 00:41:39;;;;;;;76.17;31.00;;;;;;;-0.53;100.00;94666.44;1037830;28;20491;-68
2020/12/11 00:42:10;;;;;;;71.95;29.80;;;;;;;-0.49;100.00;94672.69;1034420;28;20022;-70
2020/12/11 00:42:40;;;;;;;75.50;29.60;;;;;;;-0.53;100.00;94669.00;1029952;28;20041;-69
2020/12/11 00:43:11;;;;;;;79.27;31.23;;;;;;;-0.49;100.00;94675.28;1030828;28;20026;-69
2020/12/11 00:43:41;;;;;;;79.60;31.27;;;;;;;-0.56;100.00;94661.72;1034455;28;20108;-68
2020/12/11 00:44:12;;;;;;;80.07;31.90;;;;;;;-0.60;100.00;94661.38;1034309;28;20120;-69
2020/12/11 00:44:42;;;;;;;84.03;33.43;;;;;;;-0.50;100.00;94666.00;1034005;28;20037;-72
2020/12/11 00:45:13;;;;;;;86.23;34.03;;;;;;;-0.50;100.00;94676.28;1030369;28;20031;-70
2020/12/11 00:45:43;;;;;;;83.20;33.43;;;;;;;-0.51;100.00;94677.28;1025980;28;20065;-71
2020/12/11 00:46:14;;;;;;;77.43;32.43;;;;;;;-0.59;100.00;94657.00;1030216;28;20079;-73
2020/12/11 00:46:44;;;;;;;81.43;32.20;;;;;;;-0.52;100.00;94675.72;1021961;28;20039;-71
2020/12/11 00:47:15;;;;;;;81.07;33.97;;;;;;;-0.52;100.00;94671.34;1026223;28;20030;-69
2020/12/11 00:47:45;;;;;;;79.53;33.93;;;;;;;-0.52;100.00;94675.72;1026036;28;20027;-71
2020/12/11 00:48:15;;;;;;;75.53;31.30;;;;;;;-0.50;100.00;94668.56;1030450;28;20026;-70
2020/12/11 00:48:46;;;;;;;78.23;32.53;;;;;;;-0.50;100.00;94678.88;1034137;28;20029;-71
2020/12/11 00:49:16;;;;;;;88.47;32.43;;;;;;;-0.51;100.00;94666.97;1038012;28;20912;-69
2020/12/11 00:49:47;;;;;;;87.57;33.57;;;;;;;-0.51;100.00;94664.41;1038336;28;20025;-69
2020/12/11 00:50:17;;;;;;;79.03;31.87;;;;;;;-0.57;100.00;94652.38;1030108;28;20026;-69
2020/12/11 00:50:48;;;;;;;85.73;31.37;;;;;;;-0.48;100.00;94674.25;1026037;28;20037;-71
2020/12/11 00:51:19;;;;;;;76.33;29.77;;;;;;;-0.63;100.00;94653.28;1029815;28;20453;-66
2020/12/11 00:51:54;;;;;;;75.30;29.52;;;;;;;-0.49;100.00;94672.69;1025979;28;20177;-70
2020/12/11 00:52:25;;;;;;;79.40;29.88;;;;;;;-0.48;100.00;94669.13;1026856;28;20065;-70
2020/12/11 00:52:55;;;;;;;72.40;28.77;;;;;;;-0.48;100.00;94676.84;1025857;28;20045;-68
2020/12/11 00:53:25;;;;;;;74.13;28.67;;;;;;;-0.49;100.00;94670.13;1026715;28;20046;-69
2020/12/11 00:53:56;;;;;;;71.47;28.40;;;;;;;-0.50;100.00;94674.50;1022185;29;20468;-71
2020/12/11 00:54:26;;;;;;;80.03;29.23;;;;;;;-0.50;100.00;94674.50;1024027;28;20046;-70
2020/12/11 00:54:57;;;;;;;76.13;29.70;;;;;;;-0.50;100.00;94673.72;1030161;28;20038;-71
2020/12/11 00:55:27;;;;;;;66.83;27.33;;;;;;;-0.58;100.00;94663.72;1030198;28;20022;-71
2020/12/11 00:55:58;;;;;;;63.93;26.53;;;;;;;-0.51;100.00;94678.06;1029902;28;20026;-72
2020/12/11 00:56:28;;;;;;;68.37;26.93;;;;;;;-0.51;100.00;94678.06;1026306;28;20042;-70
2020/12/11 00:56:59;;;;;;;70.00;27.90;;;;;;;-0.50;100.00;94679.66;1030143;28;20058;-70
2020/12/11 00:57:29;;;;;;;67.67;27.30;;;;;;;-0.50;100.00;94679.66;1029717;28;20034;-71
2020/12/11 00:58:00;;;;;;;75.23;29.13;;;;;;;-0.50;100.00;94677.06;1038034;28;20026;-70
2020/12/11 00:58:30;;;;;;;70.03;27.27;;;;;;;-0.61;100.00;94659.00;1038293;28;20029;-71
2020/12/11 00:59:01;;;;;;;66.23;28.53;;;;;;;-0.49;100.00;94677.84;1030189;28;20411;-70
2020/12/11 00:59:31;;;;;;;68.53;28.20;;;;;;;-0.48;100.00;94671.69;1041142;28;20079;-69
2020/12/11 01:00:06;;;;;;;81.47;29.00;;;;;;;-0.48;100.00;94676.84;1047249;28;20391;-70
2020/12/11 01:00:37;;;;;;;78.13;29.35;;;;;;;-0.48;100.00;94674.25;1044553;28;20029;-67
2020/12/11 01:01:07;;;;;;;74.70;29.83;;;;;;;-0.48;100.00;94666.53;1031322;28;20479;-71
2020/12/11 01:01:38;;;;;;;74.70;28.60;;;;;;;-0.49;100.00;94668.34;1034190;28;20037;-70
2020/12/11 01:02:08;;;;;;;78.00;29.93;;;;;;;-0.50;100.00;94663.41;1038274;28;20113;-72
2020/12/11 01:02:41;;;;;;;71.17;26.97;;;;;;;-0.50;100.00;94669.34;1038266;28;20047;-68
2020/12/11 01:03:12;;;;;;;78.38;29.95;;;;;;;-0.50;100.00;94660.84;1038329;28;20723;-70
2020/12/11 01:03:42;;;;;;;63.03;26.33;;;;;;;-0.57;100.00;94652.38;1038119;28;20021;-71
2020/12/11 01:04:13;;;;;;;62.97;27.03;;;;;;;-0.50;100.00;94661.63;1034197;28;20014;-68
2020/12/11 01:04:43;;;;;;;64.10;28.13;;;;;;;-0.51;100.00;94666.97;1033954;28;20053;-70
2020/12/11 01:05:14;;;;;;;76.50;27.20;;;;;;;-0.48;100.00;94666.53;1034308;28;20433;-70
2020/12/11 01:05:44;;;;;;;73.37;28.07;;;;;;;-0.49;100.00;94660.59;1034073;28;20115;-71
2020/12/11 01:06:15;;;;;;;78.20;30.13;;;;;;;-0.48;100.00;94662.16;1038487;28;20022;-70
2020/12/11 01:06:45;;;;;;;63.60;26.80;;;;;;;-0.50;100.00;94664.19;1034010;28;20394;-71
2020/12/11 01:07:16;;;;;;;68.13;27.10;;;;;;;-0.56;100.00;94652.19;1034334;28;20026;-71
2020/12/11 01:07:46;;;;;;;72.87;27.97;;;;;;;-0.48;100.00;94659.59;1025790;28;20019;-70
2020/12/11 01:08:17;;;;;;;67.70;27.33;;;;;;;-0.56;100.00;94652.19;1026278;28;20023;-69
2020/12/11 01:08:47;;;;;;;63.40;26.53;;;;;;;-0.47;100.00;94668.09;1026267;28;20034;-68
2020/12/11 01:09:18;;;;;;;71.60;28.63;;;;;;;-0.44;100.00;94667.66;1024397;28;20076;-69
2020/12/11 01:09:48;;;;;;;68.00;26.33;;;;;;;-0.44;100.00;94665.09;1028815;28;20022;-69
2020/12/11 01:10:19;;;;;;;64.23;26.33;;;;;;;-0.49;100.00;94664.97;1026179;28;20508;-70
2020/12/11 01:10:49;;;;;;;71.40;27.83;;;;;;;-0.46;100.00;94661.19;1030186;28;20061;-69
2020/12/11 01:11:19;;;;;;;69.27;27.67;;;;;;;-0.47;100.00;94662.94;1025811;28;20022;-69
2020/12/11 01:11:50;;;;;;;64.20;27.17;;;;;;;-0.55;100.00;94650.38;1025594;28;20038;-71
2020/12/11 01:12:20;;;;;;;70.70;28.70;;;;;;;-0.46;100.00;94661.97;1026266;28;20031;-70
2020/12/11 01:12:51;;;;;;;78.47;28.60;;;;;;;-0.52;100.00;94655.88;1022352;28;20513;-71
2020/12/11 01:13:21;;;;;;;64.27;27.47;;;;;;;-0.59;100.00;94646.69;1025910;28;20023;-68
2020/12/11 01:13:52;;;;;;;66.97;27.20;;;;;;;-0.49;100.00;94660.59;1022125;29;20027;-72
2020/12/11 01:14:22;;;;;;;81.90;30.70;;;;;;;-0.46;100.00;94664.53;1018150;29;20454;-72
2020/12/11 01:14:53;;;;;;;72.43;29.93;;;;;;;-0.47;100.00;94665.53;1020595;28;20034;-71
2020/12/11 01:15:23;;;;;;;60.87;26.23;;;;;;;-0.44;100.00;94661.72;1018137;29;20024;-68
2020/12/11 01:15:54;;;;;;;63.27;27.27;;;;;;;-0.44;100.00;94667.66;1018158;29;20456;-68
2020/12/11 01:16:24;;;;;;;66.50;27.77;;;;;;;-0.42;100.00;94663.09;1019233;28;20024;-68
2020/12/11 01:16:55;;;;;;;66.80;26.97;;;;;;;-0.42;100.00;94664.88;1022292;28;20081;-72
2020/12/11 01:17:25;;;;;;;62.87;26.77;;;;;;;-0.51;100.00;94651.50;1026067;28;20451;-70
2020/12/11 01:17:56;;;;;;;65.20;27.23;;;;;;;-0.46;100.00;94669.69;1022056;29;20109;-70
2020/12/11 01:18:26;;;;;;;66.60;27.97;;;;;;;-0.48;100.00;94667.31;1021717;28;20096;-70
2020/12/11 01:18:57;;;;;;;60.67;25.50;;;;;;;-0.47;100.00;94660.38;1038726;28;20021;-70
2020/12/11 01:19:27;;;;;;;71.27;28.57;;;;;;;-0.45;100.00;94666.09;1038910;28;20515;-71
2020/12/11 01:19:57;;;;;;;84.47;31.00;;;;;;;-0.47;100.00;94662.94;1032603;28;20075;-70
2020/12/11 01:20:28;;;;;;;66.53;26.43;;;;;;;-0.48;100.00;94667.31;1022295;28;20015;-70
2020/12/11 01:20:58;;;;;;;76.67;28.63;;;;;;;-0.53;100.00;94654.31;1026205;28;20510;-69
2020/12/11 01:21:29;;;;;;;61.10;26.70;;;;;;;-0.44;100.00;94669.47;1033605;28;20029;-69
2020/12/11 01:22:04;;;;;;;70.43;26.95;;;;;;;-0.48;100.00;94664.75;1022168;28;20551;-70
2020/12/11 01:22:34;;;;;;;73.18;27.10;;;;;;;-0.45;100.00;94663.53;1026653;28;20120;-71
2020/12/11 01:23:05;;;;;;;64.80;26.52;;;;;;;-0.47;100.00;94662.94;1021846;29;20554;-71
2020/12/11 01:23:35;;;;;;;75.25;28.98;;;;;;;-0.51;100.00;94661.81;1026162;28;20109;-72
2020/12/11 01:24:06;;;;;;;79.37;30.20;;;;;;;-0.46;100.00;94663.75;1028249;28;20480;-72
2020/12/11 01:24:36;;;;;;;70.95;27.80;;;;;;;-0.45;100.00;94670.47;1025882;28;20076;-71
2020/12/11 01:25:07;;;;;;;67.23;27.87;;;;;;;-0.50;100.00;94661.63;1023786;28;20023;-71
2020/12/11 01:25:37;;;;;;;72.37;28.43;;;;;;;-0.48;100.00;94662.16;1026076;28;20563;-70
2020/12/11 01:26:08;;;;;;;67.30;26.73;;;;;;;-0.54;100.00;94647.59;1026213;28;20023;-71
2020/12/11 01:26:44;;;;;;;73.70;28.33;;;;;;;-0.49;100.00;94659.81;1025715;28;20587;-69
2020/12/11 01:27:14;;;;;;;72.57;29.38;;;;;;;-0.66;100.00;94628.75;1022164;29;20500;-68
2020/12/11 01:27:45;;;;;;;69.23;28.57;;;;;;;-0.43;100.00;94663.31;1026144;28;20030;-70
2020/12/11 01:28:15;;;;;;;80.33;31.47;;;;;;;-0.42;100.00;94664.88;1026924;28;20920;-70
2020/12/11 01:28:46;;;;;;;62.97;27.97;;;;;;;-0.51;100.00;94648.94;1033728;28;20021;-70
2020/12/11 01:29:16;;;;;;;68.53;30.07;;;;;;;-0.44;100.00;94659.94;1038389;28;20055;-69
2020/12/11 01:29:47;;;;;;;72.57;29.90;;;;;;;-0.44;100.00;94661.72;1042472;28;20074;-72
2020/12/11 01:30:17;;;;;;;73.73;29.97;;;;;;;-0.52;100.00;94644.78;1042160;28;20099;-71
2020/12/11 01:30:48;;;;;;;88.40;32.57;;;;;;;-0.43;100.00;94656.38;1038064;28;20017;-70
2020/12/11 01:31:18;;;;;;;71.78;29.52;;;;;;;-0.50;100.00;94637.66;1029853;28;20645;-72
2020/12/11 01:31:49;;;;;;;71.77;29.40;;;;;;;-0.43;100.00;94653.00;1029491;28;20100;-72
2020/12/11 01:32:19;;;;;;;71.43;29.83;;;;;;;-0.67;100.00;94621.22;1030271;28;20022;-70
2020/12/11 01:32:50;;;;;;;67.40;28.63;;;;;;;-0.48;100.00;94649.28;1034089;28;20386;-69
2020/12/11 01:33:20;;;;;;;62.90;26.60;;;;;;;-0.51;100.00;94652.28;1038183;28;20009;-71
2020/12/11 01:33:51;;;;;;;75.40;29.37;;;;;;;-0.50;100.00;94653.88;1034024;28;20022;-71
2020/12/11 01:34:21;;;;;;;65.40;28.40;;;;;;;-0.52;100.00;94652.53;1025980;28;20022;-72
2020/12/11 01:34:52;;;;;;;70.13;29.83;;;;;;;-0.51;100.00;94649.72;1021907;29;20019;-69
2020/12/11 01:35:22;;;;;;;81.80;32.13;;;;;;;-0.58;100.00;94640.53;1033726;28;20169;-70
2020/12/11 01:35:53;;;;;;;66.90;28.30;;;;;;;-0.50;100.00;94647.94;1046764;28;20620;-69
2020/12/11 01:36:26;;;;;;;72.60;29.80;;;;;;;-0.49;100.00;94652.88;1026047;28;20027;-71
2020/12/11 01:37:02;;;;;;;67.38;27.30;;;;;;;-0.56;100.00;94638.53;1030943;28;20080;-70
2020/12/11 01:37:33;;;;;;;70.90;29.55;;;;;;;-0.59;100.00;94641.53;1026118;28;20030;-71
2020/12/11 01:38:04;;;;;;;66.35;27.65;;;;;;;-0.58;100.00;94645.66;1023299;28;20095;-71
2020/12/11 01:38:35;;;;;;;78.78;30.38;;;;;;;-0.53;100.00;94650.97;1021947;28;20031;-71
2020/12/11 01:39:05;;;;;;;77.93;30.80;;;;;;;-0.53;100.00;94653.53;1018437;28;20044;-72
2020/12/11 01:39:36;;;;;;;72.67;29.80;;;;;;;-0.51;100.00;94654.88;1018426;28;20544;-67
2020/12/11 01:40:06;;;;;;;71.30;29.98;;;;;;;-0.50;100.00;94647.94;1026262;28;20027;-68
2020/12/11 01:40:37;;;;;;;66.87;28.40;;;;;;;-0.62;100.00;94637.59;1033816;28;20121;-69
2020/12/11 01:41:07;;;;;;;72.30;29.90;;;;;;;-0.51;100.00;94647.13;1022009;28;20035;-72
2020/12/11 01:41:38;;;;;;;81.07;31.23;;;;;;;-0.50;100.00;94653.09;1025478;28;20030;-70
2020/12/11 01:42:12;;;;;;;84.80;33.33;;;;;;;-0.51;100.00;94652.28;1022112;28;20078;-70
2020/12/11 01:42:42;;;;;;;75.70;30.52;;;;;;;-0.48;100.00;94656.22;1019152;28;20078;-69
2020/12/11 01:43:13;;;;;;;77.83;31.17;;;;;;;-0.46;100.00;94653.44;1021956;29;20039;-70
2020/12/11 01:43:44;;;;;;;72.03;29.45;;;;;;;-0.55;100.00;94650.38;1019035;28;20440;-69
2020/12/11 01:44:14;;;;;;;66.20;28.37;;;;;;;-0.49;100.00;94652.88;1022429;28;20031;-69
2020/12/11 01:44:52;;;;;;;72.07;28.33;;;;;;;-0.47;100.00;94665.53;1022111;29;20026;-69
2020/12/11 01:45:22;;;;;;;68.05;26.30;;;;;;;-0.46;100.00;94659.38;1024270;28;20027;-72
2020/12/11 01:45:52;;;;;;;65.70;27.60;;;;;;;-0.44;100.00;94662.50;1031188;28;20045;-70
2020/12/11 01:46:23;;;;;;;65.90;27.83;;;;;;;-0.49;100.00;94670.13;1031131;28;20022;-69
2020/12/11 01:46:57;;;;;;;64.87;27.43;;;;;;;-0.47;100.00;94665.53;1026118;28;20026;-71
2020/12/11 01:47:27;;;;;;;63.35;27.35;;;;;;;-0.45;100.00;94667.91;1026246;28;20056;-71
2020/12/11 01:47:58;;;;;;;71.90;30.40;;;;;;;-0.44;100.00;94667.66;1026106;28;20038;-70
2020/12/11 01:48:28;;;;;;;72.47;28.10;;;;;;;-0.44;100.00;94661.72;1026671;28;20076;-69
2020/12/11 01:48:59;;;;;;;73.22;29.52;;;;;;;-0.47;100.00;94662.94;1025776;28;20154;-70
2020/12/11 01:49:29;;;;;;;63.57;27.90;;;;;;;-0.59;100.00;94644.88;1026125;28;20023;-71
2020/12/11 01:50:00;;;;;;;71.88;28.73;;;;;;;-0.48;100.00;94663.97;1026131;28;20476;-72
2020/12/11 01:50:30;;;;;;;71.03;27.90;;;;;;;-0.54;100.00;94652.75;1029918;28;20018;-69
2020/12/11 01:51:01;;;;;;;61.22;27.63;;;;;;;-0.47;100.00;94660.38;1026029;28;20080;-70
2020/12/11 01:51:32;;;;;;;66.37;27.67;;;;;;;-0.48;100.00;94659.59;1029305;28;20396;-69
2020/12/11 01:52:03;;;;;;;65.40;28.45;;;;;;;-0.47;100.00;94655.22;1021922;28;20576;-71
2020/12/11 01:52:34;;;;;;;69.53;27.42;;;;;;;-0.49;100.00;94660.59;1022199;28;20030;-69
2020/12/11 01:53:05;;;;;;;57.45;26.85;;;;;;;-0.68;100.00;94620.44;1025891;28;20031;-69
2020/12/11 01:53:35;;;;;;;70.56;29.42;;;;;;;-0.47;100.00;94652.63;1026061;28;20029;-71
2020/12/11 01:54:06;;;;;;;65.40;28.63;;;;;;;-0.47;100.00;94647.47;1029857;28;20048;-71
2020/12/11 01:54:36;;;;;;;68.97;29.23;;;;;;;-0.47;100.00;94650.06;1030027;28;20033;-71
2020/12/11 01:55:07;;;;;;;84.23;31.63;;;;;;;-0.46;100.00;94650.88;1030497;28;20049;-70
2020/12/11 01:55:39;;;;;;;65.97;28.10;;;;;;;-0.55;100.00;94640.09;1033498;28;20120;-71
2020/12/11 01:56:11;;;;;;;73.35;28.77;;;;;;;-0.47;100.00;94647.47;1030166;28;20619;-71
2020/12/11 01:57:03;;;;;;;70.90;29.02;;;;;;;-0.48;100.00;94651.84;1022467;28;20585;-72
2020/12/11 01:57:40;;;;;;;68.90;27.40;;;;;;;-0.48;100.00;94648.50;1025696;28;20019;-70
2020/12/11 01:58:14;;;;;;;64.63;26.50;;;;;;;-0.56;100.00;94635.94;1026151;28;20038;-71
2020/12/11 01:58:50;;;;;;;65.13;27.38;;;;;;;-0.57;100.00;94640.31;1026015;28;20053;-71
2020/12/11 01:59:29;;;;;;;67.82;28.08;;;;;;;-0.51;100.00;94646.38;1025699;28;20027;-71
2020/12/11 02:00:04;;;;;;;66.93;27.45;;;;;;;-0.61;100.00;94635.81;1025811;28;20031;-72
2020/12/11 02:00:34;;;;;;;74.88;28.35;;;;;;;-0.51;100.00;94641.22;1022102;29;20562;-71
2020/12/11 02:01:05;;;;;;;63.33;27.15;;;;;;;-0.50;100.00;94653.09;1042416;28;20024;-70
2020/12/11 02:01:35;;;;;;;69.72;28.70;;;;;;;-0.51;100.00;94646.38;1039304;28;20514;-71
2020/12/11 02:02:07;;;;;;;60.57;27.90;;;;;;;-0.51;100.00;94648.94;1026138;28;20034;-72
2020/12/11 02:02:38;;;;;;;66.32;29.20;;;;;;;-0.51;100.00;94652.28;1029965;28;20019;-70
2020/12/11 02:03:09;;;;;;;59.75;27.20;;;;;;;-0.50;100.00;94653.09;1029982;28;20027;-70
2020/12/11 02:03:40;;;;;;;65.80;27.34;;;;;;;-0.50;100.00;94642.78;1025432;28;20412;-71
2020/12/11 02:04:10;;;;;;;69.17;28.73;;;;;;;-0.50;100.00;94642.78;1025987;28;20098;-71
2020/12/11 02:04:41;;;;;;;74.03;29.47;;;;;;;-0.58;100.00;94633.56;1026087;28;20490;-70
2020/12/11 02:05:11;;;;;;;69.93;28.73;;;;;;;-0.48;100.00;94643.34;1022174;28;20026;-70
2020/12/11 02:05:42;;;;;;;61.20;27.10;;;;;;;-0.50;100.00;94645.38;1025977;28;20051;-71
2020/12/11 02:06:12;;;;;;;64.53;28.87;;;;;;;-0.50;100.00;94645.38;1034182;28;20136;-69
2020/12/11 02:06:43;;;;;;;61.43;26.60;;;;;;;-0.50;100.00;94637.66;1029812;28;20022;-71
2020/12/11 02:07:13;;;;;;;73.60;30.38;;;;;;;-0.49;100.00;94634.06;1026111;28;20901;-69
2020/12/11 02:07:44;;;;;;;65.40;28.57;;;;;;;-0.46;100.00;94633.63;1029838;28;20035;-70
2020/12/11 02:08:14;;;;;;;71.90;29.70;;;;;;;-0.52;100.00;94629.34;1025911;28;20102;-71
2020/12/11 02:08:45;;;;;;;83.73;32.43;;;;;;;-0.42;100.00;94645.03;1025954;28;20073;-70
2020/12/11 02:09:16;;;;;;;70.50;29.60;;;;;;;-0.41;100.00;94636.31;1023221;28;20016;-70
2020/12/11 02:09:46;;;;;;;71.37;29.33;;;;;;;-0.43;100.00;94625.44;1022272;29;20027;-72
2020/12/11 02:10:17;;;;;;;62.15;27.88;;;;;;;-0.39;100.00;94639.47;1018637;29;20477;-70
2020/12/11 02:10:47;;;;;;;62.10;28.15;;;;;;;-0.35;100.00;94632.84;1022781;29;20042;-69
2020/12/11 02:11:21;;;;;;;60.17;26.23;;;;;;;-0.46;100.00;94618.16;1026487;28;20015;-69
2020/12/11 02:11:52;;;;;;;57.80;26.10;;;;;;;-0.44;100.00;94613.56;1027217;28;20018;-72
2020/12/11 02:12:22;;;;;;;60.33;27.90;;;;;;;-0.37;100.00;94626.34;1029919;28;20030;-71
2020/12/11 02:12:53;;;;;;;63.93;28.50;;;;;;;-0.37;100.00;94624.56;1030164;28;20364;-70
2020/12/11 02:13:23;;;;;;;60.70;28.50;;;;;;;-0.36;100.00;94633.84;1030720;28;20080;-70
2020/12/11 02:13:54;;;;;;;65.57;26.73;;;;;;;-0.42;100.00;94614.13;1030956;28;20042;-72
2020/12/11 02:14:24;;;;;;;54.40;25.53;;;;;;;-0.37;100.00;94626.34;1030236;28;20410;-70
2020/12/11 02:14:55;;;;;;;59.63;28.30;;;;;;;-0.37;100.00;94621.19;1030700;28;20030;-71
2020/12/11 02:15:25;;;;;;;63.50;28.37;;;;;;;-0.35;100.00;94624.34;1026715;28;20161;-70
2020/12/11 02:15:56;;;;;;;61.53;27.37;;;;;;;-0.44;100.00;94612.78;1030633;28;20031;-73
2020/12/11 02:16:26;;;;;;;60.67;28.35;;;;;;;-0.36;100.00;94633.84;1030608;28;20018;-71
2020/12/11 02:16:58;;;;;;;62.00;28.80;;;;;;;-0.50;100.00;94604.94;1026914;28;20074;-70
2020/12/11 02:17:28;;;;;;;71.72;29.62;;;;;;;-0.38;100.00;94629.94;1030682;28;20022;-69
2020/12/11 02:17:59;;;;;;;65.32;27.88;;;;;;;-0.38;100.00;94620.41;1030694;28;20034;-68
2020/12/11 02:18:29;;;;;;;53.43;26.07;;;;;;;-0.42;100.00;94624.44;1030608;28;20026;-72
2020/12/11 02:19:00;;;;;;;50.83;26.90;;;;;;;-0.44;100.00;94623.84;1022776;28;20585;-69
2020/12/11 02:19:33;;;;;;;52.63;25.37;;;;;;;-0.49;100.00;94611.66;1030427;28;20019;-70
2020/12/11 02:20:03;;;;;;;46.75;25.30;;;;;;;-0.40;100.00;94627.59;1022533;29;20504;-70
2020/12/11 02:20:33;;;;;;;52.83;26.10;;;;;;;-0.49;100.00;94610.88;1023279;28;20110;-71
2020/12/11 02:21:04;;;;;;;56.13;27.07;;;;;;;-0.43;100.00;94628.03;1026590;28;20468;-68